Time;durP1;ratioP1;P1;durP2;ratioP2;P2;SDS_P1;SDS_P2;PMS_P1;PMS_P2;Temp;Humidity;BMP_temperature;BMP_pressure;BME280_temperature;BME280_humidity;BME280_pressure;Samples;Min_cycle;Max_cycle;Signal;HPM_P1;HPM_P2
2022/09/10 00:00:16;;;;;;;1.20;1.03;;;;;;;15.40;100.00;99210.78;4909329;29;20245;-93
2022/09/10 00:02:44;;;;;;;1.43;1.20;;;;;;;15.38;100.00;99202.16;4917355;29;20234;-93
2022/09/10 00:05:11;;;;;;;1.47;1.00;;;;;;;15.42;100.00;99203.25;4920976;29;20322;-94
2022/09/10 00:07:38;;;;;;;1.10;1.00;;;;;;;15.40;100.00;99199.97;4921645;29;20233;-94
2022/09/10 00:10:05;;;;;;;1.57;1.00;;;;;;;15.37;100.00;99193.22;4920101;29;20241;-94
2022/09/10 00:12:33;;;;;;;2.10;1.20;;;;;;;15.32;100.00;99195.91;4918912;29;20233;-93
2022/09/10 00:15:00;;;;;;;1.30;1.20;;;;;;;15.33;100.00;99189.44;4920528;29;20309;-94
2022/09/10 00:17:27;;;;;;;2.30;1.20;;;;;;;15.47;100.00;99178.16;4903930;29;20241;-94
2022/09/10 00:19:54;;;;;;;1.23;1.03;;;;;;;15.32;100.00;99178.88;4917471;29;20238;-94
2022/09/10 00:22:21;;;;;;;1.67;1.30;;;;;;;15.25;100.00;99197.22;4905077;29;20221;-94
2022/09/10 00:24:48;;;;;;;1.53;1.20;;;;;;;15.19;100.00;99196.38;4933292;29;20621;-93
2022/09/10 00:27:14;;;;;;;1.30;1.20;;;;;;;15.21;100.00;99209.59;4915823;29;20310;-93
2022/09/10 00:29:41;;;;;;;1.43;1.33;;;;;;;15.13;100.00;99200.09;4918475;29;20236;-93
2022/09/10 00:32:08;;;;;;;1.43;1.13;;;;;;;15.13;100.00;99191.19;4919782;29;20316;-94
2022/09/10 00:34:35;;;;;;;1.20;1.10;;;;;;;15.09;100.00;99190.06;4904459;29;20676;-93
2022/09/10 00:37:01;;;;;;;1.40;1.30;;;;;;;15.06;100.00;99188.72;4918663;29;20229;-93
2022/09/10 00:39:28;;;;;;;1.40;1.30;;;;;;;15.08;100.00;99199.22;4917539;29;20237;-94
2022/09/10 00:41:56;;;;;;;3.23;1.70;;;;;;;15.07;100.00;99187.63;4914418;29;20787;-94
2022/09/10 00:44:42;;;;;;;1.70;1.60;;;;;;;15.09;100.00;99181.97;4911731;29;20229;-94
2022/09/10 00:47:23;;;;;;;1.73;1.50;;;;;;;15.06;100.00;99179.81;4932860;29;20737;-94
2022/09/10 00:49:53;;;;;;;1.50;1.40;;;;;;;15.07;100.00;99178.75;4894018;29;20792;-94
2022/09/10 00:52:21;;;;;;;1.63;1.50;;;;;;;15.07;100.00;99178.75;4905753;29;20237;-94
2022/09/10 00:54:48;;;;;;;2.13;1.60;;;;;;;15.05;100.00;99175.47;4912453;29;20261;-92
2022/09/10 00:57:18;;;;;;;1.70;1.60;;;;;;;15.02;100.00;99178.72;4923675;29;20234;-93
2022/09/10 00:59:52;;;;;;;2.67;1.97;;;;;;;15.03;100.00;99180.31;4923980;29;20247;-94
2022/09/10 01:02:20;;;;;;;3.27;1.93;;;;;;;15.05;100.00;99170.09;4921961;29;20257;-94
2022/09/10 01:04:48;;;;;;;1.73;1.63;;;;;;;14.98;100.00;99173.00;4926552;29;20305;-94
2022/09/10 01:07:15;;;;;;;3.63;1.70;;;;;;;14.94;100.00;99170.00;4933749;29;20233;-94
2022/09/10 01:09:42;;;;;;;1.93;1.50;;;;;;;14.95;100.00;99162.72;4927889;29;20688;-93
2022/09/10 01:12:32;;;;;;;1.60;1.50;;;;;;;14.95;100.00;99158.16;4924050;29;20265;-94
2022/09/10 01:15:14;;;;;;;3.67;1.40;;;;;;;14.95;100.00;99157.34;4927014;29;20234;-95
2022/09/10 01:17:59;;;;;;;1.70;1.50;;;;;;;14.93;100.00;99159.50;4914057;29;20241;-95
2022/09/10 01:20:46;;;;;;;2.03;1.57;;;;;;;14.93;100.00;99162.97;4934958;29;20669;-94
2022/09/10 01:23:13;;;;;;;4.20;1.83;;;;;;;14.91;100.00;99159.75;4917749;29;20325;-94
2022/09/10 01:26:10;;;;;;;2.80;1.90;;;;;;;14.87;100.00;99150.56;4936391;29;20301;-94
2022/09/10 01:28:42;;;;;;;2.27;1.70;;;;;;;14.90;100.00;99144.63;4919790;29;20252;-95
2022/09/10 01:31:17;;;;;;;2.03;1.53;;;;;;;14.87;100.00;99142.47;4919606;29;20229;-95
2022/09/10 01:34:00;;;;;;;1.77;1.40;;;;;;;14.84;100.00;99142.16;4901542;29;20236;-94
2022/09/10 01:36:30;;;;;;;1.87;1.60;;;;;;;14.84;100.00;99139.44;4889248;29;20340;-94
2022/09/10 01:38:56;;;;;;;2.60;1.60;;;;;;;14.82;100.00;99138.91;4925644;29;20253;-94
2022/09/10 01:41:26;;;;;;;1.70;1.60;;;;;;;14.82;100.00;99139.72;4906907;29;20694;-94
2022/09/10 01:43:53;;;;;;;3.37;1.93;;;;;;;14.82;100.00;99147.00;4911796;29;20230;-94
2022/09/10 01:46:44;;;;;;;2.00;1.80;;;;;;;14.83;100.00;99140.53;4933938;28;20232;-94
2022/09/10 01:49:39;;;;;;;2.10;1.60;;;;;;;14.81;100.00;99134.59;4939047;28;20737;-94
2022/09/10 01:52:27;;;;;;;1.70;1.53;;;;;;;14.77;100.00;99133.47;4935321;28;20263;-94
2022/09/10 01:55:01;;;;;;;2.00;1.70;;;;;;;14.74;100.00;99125.91;4927526;29;20229;-93
2022/09/10 01:57:57;;;;;;;1.87;1.63;;;;;;;14.70;100.00;99130.16;4938582;28;20227;-95
2022/09/10 02:00:33;;;;;;;1.70;1.60;;;;;;;14.73;100.00;99129.69;4915729;28;20227;-94
2022/09/10 02:03:06;;;;;;;2.97;1.50;;;;;;;14.69;100.00;99131.28;4942110;28;20248;-94
2022/09/10 02:05:35;;;;;;;1.50;1.40;;;;;;;14.64;100.00;99123.94;4931129;28;20778;-94
2022/09/10 02:08:09;;;;;;;3.10;1.63;;;;;;;14.62;100.00;99120.69;4929898;28;20315;-94
2022/09/10 02:10:58;;;;;;;1.77;1.67;;;;;;;14.62;100.00;99118.00;4926936;29;20602;-94
2022/09/10 02:13:29;;;;;;;2.37;1.70;;;;;;;14.59;100.00;99118.53;4918015;28;20283;-94
2022/09/10 02:16:33;;;;;;;1.70;1.60;;;;;;;14.60;100.00;99109.38;4949958;28;20236;-94
2022/09/10 02:19:01;;;;;;;1.67;1.57;;;;;;;14.57;100.00;99109.88;4931603;28;20279;-94
2022/09/10 02:21:28;;;;;;;1.83;1.50;;;;;;;14.51;100.00;99109.00;4936341;29;20291;-95
2022/09/10 02:23:57;;;;;;;2.00;1.20;;;;;;;14.57;100.00;99107.16;4925903;29;20240;-94
2022/09/10 02:26:27;;;;;;;1.30;1.20;;;;;;;14.53;100.00;99111.44;4939144;28;20250;-94
2022/09/10 02:28:54;;;;;;;1.40;1.30;;;;;;;14.51;100.00;99113.59;4954084;28;20242;-94
2022/09/10 02:31:21;;;;;;;1.50;1.40;;;;;;;14.48;100.00;99117.63;4952732;28;20240;-94
2022/09/10 02:33:49;;;;;;;1.30;1.20;;;;;;;14.42;100.00;99113.25;4916587;28;20232;-94
2022/09/10 02:36:16;;;;;;;1.40;1.20;;;;;;;14.41;100.00;99116.22;4958297;28;20225;-94
2022/09/10 02:38:44;;;;;;;1.67;1.30;;;;;;;14.40;100.00;99120.78;4941485;29;20240;-94
2022/09/10 02:41:11;;;;;;;1.53;1.30;;;;;;;14.40;100.00;99118.09;4931867;29;20233;-95
2022/09/10 02:43:41;;;;;;;1.60;1.40;;;;;;;14.37;100.00;99123.19;4928639;28;20235;-94
2022/09/10 02:46:09;;;;;;;1.07;1.00;;;;;;;14.34;100.00;99131.75;4914457;28;20287;-94
2022/09/10 02:48:37;;;;;;;2.20;1.23;;;;;;;14.39;100.00;99121.84;4928718;28;20232;-94
2022/09/10 02:51:06;;;;;;;1.60;1.10;;;;;;;14.39;100.00;99135.31;4931641;29;20272;-94
2022/09/10 02:53:34;;;;;;;3.03;1.13;;;;;;;14.34;100.00;99129.84;4937499;28;20263;-94
2022/09/10 02:56:03;;;;;;;1.20;0.97;;;;;;;14.39;100.00;99138.03;4975917;28;20363;-94
2022/09/10 02:58:30;;;;;;;1.87;1.10;;;;;;;14.37;100.00;99140.16;4960735;28;20682;-94
2022/09/10 03:01:18;;;;;;;1.97;1.00;;;;;;;14.39;100.00;99132.63;4960831;28;20238;-94
2022/09/10 03:03:53;;;;;;;1.40;1.03;;;;;;;14.30;100.00;99126.06;4934903;29;20340;-94
2022/09/10 03:06:22;;;;;;;1.23;1.10;;;;;;;14.31;100.00;99134.94;4928012;28;20237;-94
2022/09/10 03:08:49;;;;;;;2.10;1.20;;;;;;;14.27;100.00;99137.34;4939746;29;20233;-94
2022/09/10 03:11:16;;;;;;;3.07;1.50;;;;;;;14.28;100.00;99135.44;4924932;29;20288;-94
2022/09/10 03:13:44;;;;;;;1.70;1.30;;;;;;;14.30;100.00;99136.84;4926115;28;20641;-94
2022/09/10 03:16:12;;;;;;;1.30;1.20;;;;;;;14.27;100.00;99139.22;4940493;29;20229;-94
2022/09/10 03:18:40;;;;;;;1.83;1.17;;;;;;;14.29;100.00;99140.59;4940167;28;20319;-94
2022/09/10 03:21:19;;;;;;;2.40;1.50;;;;;;;14.28;100.00;99140.84;4957958;28;20276;-94
2022/09/10 03:23:48;;;;;;;2.50;1.20;;;;;;;14.28;100.00;99136.25;4934994;28;20937;-94
2022/09/10 03:26:21;;;;;;;1.83;1.43;;;;;;;14.27;100.00;99126.56;4950539;28;20725;-94
2022/09/10 03:28:48;;;;;;;1.97;1.10;;;;;;;14.34;100.00;99121.78;4941186;28;20267;-94
2022/09/10 03:31:18;;;;;;;1.20;1.10;;;;;;;14.26;100.00;99133.03;4911921;29;20781;-93
2022/09/10 03:33:48;;;;;;;1.57;1.30;;;;;;;14.25;100.00;99127.88;4926585;28;20291;-94
2022/09/10 03:36:14;;;;;;;1.43;1.33;;;;;;;14.23;100.00;99130.81;4940089;28;20241;-94
2022/09/10 03:38:42;;;;;;;1.43;1.30;;;;;;;14.16;100.00;99132.91;4925563;28;20256;-94
2022/09/10 03:41:10;;;;;;;1.40;1.30;;;;;;;14.09;100.00;99132.31;4938592;28;20243;-94
2022/09/10 03:43:37;;;;;;;2.13;1.20;;;;;;;14.10;100.00;99131.25;4933854;28;20229;-94
2022/09/10 03:46:07;;;;;;;1.50;1.40;;;;;;;14.17;100.00;99133.75;4919775;29;20240;-94
2022/09/10 03:48:38;;;;;;;1.40;1.23;;;;;;;14.16;100.00;99130.22;4949359;28;20239;-94
2022/09/10 03:51:06;;;;;;;1.37;1.27;;;;;;;14.13;100.00;99127.25;4919738;28;20268;-93
2022/09/10 03:53:34;;;;;;;1.47;1.00;;;;;;;14.11;100.00;99122.09;4934957;28;20268;-93
2022/09/10 03:56:02;;;;;;;1.20;1.10;;;;;;;14.15;100.00;99125.91;4920636;28;20236;-93
2022/09/10 03:58:30;;;;;;;1.67;1.23;;;;;;;14.16;100.00;99113.25;4922895;28;20271;-94
2022/09/10 04:00:57;;;;;;;1.10;1.10;;;;;;;14.11;100.00;99114.00;4940092;29;20239;-94
2022/09/10 04:03:24;;;;;;;1.00;0.93;;;;;;;14.11;100.00;99105.94;4943209;28;20236;-94
2022/09/10 04:05:51;;;;;;;1.00;1.00;;;;;;;14.09;100.00;99106.19;4932116;29;20324;-94
2022/09/10 04:08:19;;;;;;;3.27;1.00;;;;;;;14.11;100.00;99103.25;4925459;28;20232;-93
2022/09/10 04:10:47;;;;;;;1.67;0.90;;;;;;;14.15;100.00;99101.66;4937978;28;20239;-94
2022/09/10 04:13:14;;;;;;;1.00;0.90;;;;;;;14.43;100.00;99109.50;4934859;28;20232;-93
2022/09/10 04:15:44;;;;;;;1.00;0.70;;;;;;;14.45;100.00;99106.53;4934282;28;20236;-93
2022/09/10 04:18:12;;;;;;;1.70;0.80;;;;;;;14.60;100.00;99103.97;4935401;28;20610;-94
2022/09/10 04:20:39;;;;;;;2.73;0.87;;;;;;;14.70;100.00;99109.41;4932103;28;20232;-93
2022/09/10 04:23:08;;;;;;;1.37;0.83;;;;;;;14.84;100.00;99101.69;4937527;29;20235;-93
2022/09/10 04:25:37;;;;;;;0.97;0.70;;;;;;;14.89;100.00;99099.03;4939870;28;20230;-94
2022/09/10 04:28:04;;;;;;;1.00;0.80;;;;;;;14.97;100.00;99098.56;4939908;28;20236;-94
2022/09/10 04:30:31;;;;;;;1.53;0.70;;;;;;;14.99;100.00;99102.59;4955067;28;20692;-94
2022/09/10 04:32:59;;;;;;;1.63;0.80;;;;;;;15.28;100.00;99091.44;4954202;28;20318;-93
2022/09/10 04:35:28;;;;;;;0.93;0.83;;;;;;;15.14;100.00;99092.97;4908168;29;20272;-93
2022/09/10 04:37:56;;;;;;;4.20;0.80;;;;;;;15.19;100.00;99095.69;4918002;28;20301;-94
2022/09/10 04:40:23;;;;;;;1.40;0.90;;;;;;;15.31;100.00;99091.72;4928126;29;20229;-93
2022/09/10 04:42:50;;;;;;;1.43;0.80;;;;;;;15.24;100.00;99101.13;4923677;28;20231;-93
2022/09/10 04:45:18;;;;;;;1.47;0.80;;;;;;;15.31;100.00;99101.69;4926156;28;20232;-94
2022/09/10 04:47:45;;;;;;;0.73;0.60;;;;;;;15.35;100.00;99102.81;4954980;28;20696;-94
2022/09/10 04:50:14;;;;;;;2.50;0.80;;;;;;;15.31;100.00;99096.28;4939818;28;20251;-94
2022/09/10 04:53:00;;;;;;;1.17;0.80;;;;;;;15.58;100.00;99093.47;4964583;28;20277;-93
2022/09/10 04:55:30;;;;;;;0.90;0.80;;;;;;;15.47;100.00;99091.78;4942143;28;20225;-94
2022/09/10 04:57:56;;;;;;;1.63;0.90;;;;;;;15.53;100.00;99094.28;4941599;28;20232;-94
2022/09/10 05:00:25;;;;;;;0.90;0.70;;;;;;;15.59;100.00;99092.38;4941487;28;20256;-94
2022/09/10 05:02:52;;;;;;;1.57;0.73;;;;;;;15.59;100.00;99095.91;4941985;28;20255;-94
2022/09/10 05:05:19;;;;;;;2.10;0.70;;;;;;;15.84;100.00;99095.97;4974115;28;20723;-93
2022/09/10 05:07:47;;;;;;;1.20;0.80;;;;;;;15.70;100.00;99096.75;4941468;28;20231;-93
2022/09/10 05:10:14;;;;;;;0.83;0.70;;;;;;;15.68;100.00;99102.41;4940709;28;20228;-94
2022/09/10 05:12:41;;;;;;;1.10;0.80;;;;;;;15.78;100.00;99107.03;4926522;28;20231;-94
2022/09/10 05:15:09;;;;;;;1.33;0.63;;;;;;;16.08;100.00;99111.69;4939066;29;20233;-93
2022/09/10 05:17:36;;;;;;;1.10;0.80;;;;;;;16.20;100.00;99102.25;4927134;29;20608;-93
2022/09/10 05:20:05;;;;;;;1.73;0.60;;;;;;;16.11;100.00;99103.06;4930329;28;20233;-94
2022/09/10 05:22:37;;;;;;;3.10;0.70;;;;;;;16.14;100.00;99103.31;4938075;29;20631;-94
2022/09/10 05:25:07;;;;;;;2.47;0.60;;;;;;;16.18;100.00;99104.44;4951604;28;20260;-93
2022/09/10 05:27:35;;;;;;;1.03;0.60;;;;;;;16.18;100.00;99106.31;4933938;28;20295;-93
2022/09/10 05:30:03;;;;;;;1.07;0.60;;;;;;;16.09;100.00;99111.44;4930575;28;20268;-92
2022/09/10 05:32:31;;;;;;;1.33;0.60;;;;;;;16.22;100.00;99110.91;4932347;29;20236;-93
2022/09/10 05:34:58;;;;;;;2.43;0.80;;;;;;;16.23;100.00;99114.44;4937798;28;20323;-94
2022/09/10 05:37:25;;;;;;;1.30;0.70;;;;;;;16.16;100.00;99109.28;4925638;29;20319;-94
2022/09/10 05:39:52;;;;;;;1.20;0.60;;;;;;;16.16;100.00;99122.78;4923958;28;20239;-94
2022/09/10 05:42:21;;;;;;;2.37;0.70;;;;;;;16.15;100.00;99125.75;4939864;28;20246;-93
2022/09/10 05:44:48;;;;;;;0.73;0.73;;;;;;;16.02;100.00;99121.69;4936964;29;20724;-94
2022/09/10 05:47:14;;;;;;;1.67;0.70;;;;;;;16.06;100.00;99130.88;4932771;29;20237;-94
2022/09/10 05:49:42;;;;;;;0.60;0.57;;;;;;;16.04;100.00;99126.84;4936682;29;20233;-93
2022/09/10 05:52:09;;;;;;;1.07;0.80;;;;;;;16.14;100.00;99127.63;4912793;29;20285;-93
2022/09/10 05:54:35;;;;;;;0.53;0.53;;;;;;;16.25;100.00;99121.19;4922175;29;20622;-94
2022/09/10 05:57:02;;;;;;;0.90;0.70;;;;;;;16.48;100.00;99133.38;4919168;29;20268;-94
2022/09/10 05:59:29;;;;;;;0.97;0.60;;;;;;;16.62;100.00;99126.38;4916694;29;20234;-93
2022/09/10 06:01:56;;;;;;;0.63;0.60;;;;;;;16.83;100.00;99126.38;4906858;29;20244;-93
2022/09/10 06:04:24;;;;;;;0.93;0.60;;;;;;;16.96;100.00;99131.22;4930471;28;20225;-94
2022/09/10 06:06:52;;;;;;;3.20;0.60;;;;;;;17.09;100.00;99141.47;4920081;29;20232;-94
2022/09/10 06:09:19;;;;;;;1.33;0.77;;;;;;;16.95;100.00;99143.94;4930725;28;20324;-94
2022/09/10 06:11:58;;;;;;;0.53;0.50;;;;;;;17.23;100.00;99142.53;4941501;28;20243;-95
2022/09/10 06:14:25;;;;;;;0.50;0.50;;;;;;;17.39;100.00;99152.25;4929931;28;20237;-94
2022/09/10 06:16:55;;;;;;;1.43;0.67;;;;;;;17.59;100.00;99160.31;4935512;29;20650;-94
2022/09/10 06:19:23;;;;;;;1.60;0.60;;;;;;;17.67;100.00;99164.38;4931650;29;20320;-94
2022/09/10 06:21:51;;;;;;;0.50;0.40;;;;;;;17.68;100.00;99167.88;4917085;29;20292;-94
2022/09/10 06:24:19;;;;;;;0.70;0.50;;;;;;;17.84;100.00;99158.59;4930967;29;20340;-94
2022/09/10 06:26:49;;;;;;;0.70;0.60;;;;;;;18.04;100.00;99166.63;4932300;29;20234;-95
2022/09/10 06:29:18;;;;;;;1.73;0.70;;;;;;;18.17;100.00;99171.44;4933556;28;20233;-94
2022/09/10 06:31:46;;;;;;;1.90;0.70;;;;;;;18.23;100.00;99170.31;4934797;29;20237;-94
2022/09/10 06:34:13;;;;;;;1.60;0.60;;;;;;;18.39;94.39;99162.88;4921462;29;20260;-94
2022/09/10 06:36:40;;;;;;;0.73;0.50;;;;;;;18.38;97.98;99170.19;4923072;29;20237;-95
2022/09/10 06:39:08;;;;;;;0.80;0.50;;;;;;;18.39;94.80;99160.97;4929431;29;20228;-95
2022/09/10 06:41:43;;;;;;;1.03;0.53;;;;;;;18.53;92.97;99163.06;4935066;28;20229;-95
2022/09/10 06:44:33;;;;;;;1.57;0.57;;;;;;;18.59;87.15;99157.34;4939750;29;20236;-94
2022/09/10 06:47:10;;;;;;;0.73;0.50;;;;;;;18.62;87.36;99169.53;4908248;29;20316;-94
2022/09/10 06:49:58;;;;;;;2.67;0.50;;;;;;;18.70;86.78;99175.19;4932278;29;20356;-95
2022/09/10 06:52:29;;;;;;;1.03;0.53;;;;;;;18.80;89.02;99177.00;4926471;29;20240;-94
2022/09/10 06:55:00;;;;;;;1.40;0.50;;;;;;;18.92;88.29;99177.44;4925274;29;20256;-95
2022/09/10 06:57:46;;;;;;;0.60;0.43;;;;;;;18.82;88.62;99182.94;4931146;29;20948;-95
2022/09/10 07:00:15;;;;;;;1.53;0.50;;;;;;;19.02;85.09;99185.50;4922367;29;20300;-95
2022/09/10 07:02:44;;;;;;;0.70;0.40;;;;;;;19.21;82.12;99170.09;4920122;29;20245;-95
2022/09/10 07:05:11;;;;;;;1.40;0.60;;;;;;;19.28;82.14;99170.56;4918408;29;20238;-95
2022/09/10 07:07:40;;;;;;;1.43;0.50;;;;;;;19.52;76.88;99176.03;4917210;29;20258;-93
2022/09/10 07:10:07;;;;;;;0.60;0.50;;;;;;;19.70;77.29;99171.75;4913387;29;20231;-94
2022/09/10 07:12:35;;;;;;;4.73;0.80;;;;;;;19.91;73.72;99161.47;4923543;29;20748;-94
2022/09/10 07:15:04;;;;;;;0.70;0.47;;;;;;;19.98;71.51;99154.53;4893600;29;20230;-93
2022/09/10 07:17:34;;;;;;;0.40;0.30;;;;;;;20.04;72.19;99158.00;4921062;29;20229;-93
2022/09/10 07:20:02;;;;;;;0.73;0.47;;;;;;;19.95;74.95;99168.75;4906378;29;20236;-92
2022/09/10 07:22:42;;;;;;;0.57;0.40;;;;;;;20.09;74.72;99168.81;4943186;29;20707;-92
2022/09/10 07:25:11;;;;;;;2.00;0.50;;;;;;;19.99;74.83;99163.53;4908023;29;20207;-92
2022/09/10 07:27:52;;;;;;;0.50;0.50;;;;;;;20.09;74.77;99168.81;4930499;29;20348;-92
2022/09/10 07:30:20;;;;;;;3.63;0.50;;;;;;;20.12;71.28;99170.94;4913741;29;20267;-92
2022/09/10 07:32:49;;;;;;;0.70;0.40;;;;;;;20.14;69.77;99175.00;4905724;29;20319;-92
2022/09/10 07:35:20;;;;;;;0.87;0.50;;;;;;;20.09;72.83;99183.25;4916006;29;20271;-92
2022/09/10 07:37:48;;;;;;;0.77;0.40;;;;;;;20.19;72.11;99185.81;4920695;29;20232;-92
2022/09/10 07:40:14;;;;;;;0.50;0.50;;;;;;;20.24;73.58;99184.94;4910532;29;20240;-93
2022/09/10 07:42:44;;;;;;;1.30;0.70;;;;;;;20.20;72.20;99179.25;4916246;29;20723;-94
2022/09/10 07:45:15;;;;;;;0.40;0.40;;;;;;;20.42;71.75;99180.63;4918499;29;20300;-92
2022/09/10 07:47:43;;;;;;;1.80;0.50;;;;;;;20.49;71.70;99183.78;4933652;29;20239;-91
2022/09/10 07:50:10;;;;;;;0.30;0.30;;;;;;;20.59;66.46;99184.44;4906229;29;20232;-93
2022/09/10 07:52:37;;;;;;;0.73;0.50;;;;;;;20.68;66.62;99184.56;4905391;29;20702;-93
2022/09/10 07:55:04;;;;;;;0.60;0.40;;;;;;;20.67;69.89;99185.66;4921591;29;20248;-92
2022/09/10 07:57:33;;;;;;;0.93;0.60;;;;;;;20.71;65.60;99188.63;4936991;29;20235;-93
2022/09/10 08:00:01;;;;;;;1.27;0.50;;;;;;;20.73;67.55;99187.22;4918833;28;20243;-93
2022/09/10 08:02:41;;;;;;;2.17;0.63;;;;;;;20.96;66.37;99186.28;4936918;29;20247;-92
2022/09/10 08:05:12;;;;;;;1.13;0.50;;;;;;;20.84;64.57;99191.41;4922816;29;20229;-93
2022/09/10 08:07:40;;;;;;;0.63;0.47;;;;;;;21.08;64.64;99194.00;4927289;29;20239;-94
2022/09/10 08:10:10;;;;;;;0.60;0.47;;;;;;;21.12;62.07;99197.75;4905227;29;20283;-93
2022/09/10 08:12:39;;;;;;;0.53;0.40;;;;;;;20.91;64.06;99196.44;4903201;29;20256;-94
2022/09/10 08:15:07;;;;;;;1.60;0.50;;;;;;;20.98;62.29;99202.34;4925676;29;20244;-92
2022/09/10 08:17:37;;;;;;;1.83;0.40;;;;;;;20.95;62.56;99195.56;4920854;29;20233;-94
2022/09/10 08:20:06;;;;;;;0.73;0.60;;;;;;;21.31;61.57;99182.19;4920745;29;20238;-93
2022/09/10 08:22:34;;;;;;;0.47;0.40;;;;;;;21.21;60.84;99184.28;4905650;29;20327;-93
2022/09/10 08:25:01;;;;;;;1.13;0.50;;;;;;;21.44;58.99;99186.84;4910891;29;20327;-94
2022/09/10 08:27:32;;;;;;;1.00;0.60;;;;;;;21.23;59.37;99193.75;4931028;29;20259;-94
2022/09/10 08:30:02;;;;;;;0.97;0.60;;;;;;;21.31;58.77;99190.34;4917939;29;20239;-94
2022/09/10 08:32:29;;;;;;;1.87;0.70;;;;;;;21.26;57.56;99195.06;4927031;29;20226;-94
2022/09/10 08:34:56;;;;;;;2.03;0.50;;;;;;;21.23;59.00;99184.78;4910374;29;20714;-93
2022/09/10 08:37:24;;;;;;;0.50;0.50;;;;;;;21.28;58.05;99187.41;4912057;29;20776;-94
2022/09/10 08:39:52;;;;;;;1.13;0.47;;;;;;;21.32;59.25;99186.50;4932942;29;20242;-95
2022/09/10 08:42:38;;;;;;;0.90;0.70;;;;;;;21.46;59.15;99192.78;4926639;29;20261;-94
2022/09/10 08:45:09;;;;;;;1.20;0.60;;;;;;;21.51;59.83;99187.22;4912010;29;20232;-94
2022/09/10 08:47:53;;;;;;;1.40;0.90;;;;;;;21.57;58.12;99187.13;4935758;29;20293;-94
2022/09/10 08:50:46;;;;;;;0.87;0.50;;;;;;;21.72;58.57;99187.66;4936234;29;20313;-94
2022/09/10 08:53:26;;;;;;;2.00;0.53;;;;;;;21.28;57.63;99190.13;4916886;29;20235;-93
2022/09/10 08:56:02;;;;;;;1.33;0.70;;;;;;;21.27;59.03;99183.88;4926285;29;20233;-95
2022/09/10 08:58:50;;;;;;;0.70;0.67;;;;;;;21.37;57.55;99189.13;4922481;29;20251;-94
2022/09/10 09:01:43;;;;;;;1.33;0.50;;;;;;;21.47;58.58;99182.69;4916782;29;20775;-94
2022/09/10 09:04:19;;;;;;;1.63;0.70;;;;;;;21.49;57.20;99197.63;4919861;29;20239;-93
2022/09/10 09:06:51;;;;;;;1.93;0.60;;;;;;;21.75;57.37;99197.94;4916928;29;20221;-93
2022/09/10 09:09:20;;;;;;;0.90;0.60;;;;;;;21.79;55.64;99189.97;4922353;29;20241;-94
2022/09/10 09:11:56;;;;;;;1.20;0.80;;;;;;;21.78;56.94;99188.38;4895269;29;20236;-94
2022/09/10 09:14:34;;;;;;;3.27;0.60;;;;;;;22.09;55.98;99191.28;4932540;29;20318;-94
2022/09/10 09:17:33;;;;;;;0.67;0.50;;;;;;;22.18;55.83;99175.81;4928184;29;20313;-94
2022/09/10 09:20:09;;;;;;;0.73;0.53;;;;;;;22.34;55.62;99180.63;4935480;29;20234;-94
2022/09/10 09:22:51;;;;;;;1.90;0.60;;;;;;;22.48;53.97;99185.25;4926117;29;20240;-93
2022/09/10 09:25:46;;;;;;;1.40;0.60;;;;;;;22.60;53.42;99180.84;4919964;29;20299;-94
2022/09/10 09:28:38;;;;;;;1.07;0.60;;;;;;;22.39;52.48;99177.78;4909231;29;20233;-94
2022/09/10 09:31:27;;;;;;;1.33;0.60;;;;;;;22.29;53.46;99177.22;4905212;29;20367;-94
2022/09/10 09:34:06;;;;;;;1.03;0.60;;;;;;;22.16;55.43;99180.78;4928791;29;20242;-93
2022/09/10 09:36:36;;;;;;;1.77;0.70;;;;;;;22.28;54.97;99173.66;4903900;29;20226;-93
2022/09/10 09:39:12;;;;;;;1.10;0.63;;;;;;;22.54;53.32;99170.34;4904558;29;20232;-92
2022/09/10 09:41:52;;;;;;;1.00;0.50;;;;;;;22.75;52.59;99172.31;4906771;29;20240;-93
2022/09/10 09:44:27;;;;;;;2.47;0.43;;;;;;;22.84;52.17;99164.19;4932457;29;20306;-93
2022/09/10 09:46:55;;;;;;;2.60;0.60;;;;;;;22.85;52.25;99159.53;4932457;29;20236;-93
2022/09/10 09:49:22;;;;;;;1.30;0.40;;;;;;;22.70;52.53;99156.06;4941811;28;20265;-94
2022/09/10 09:51:51;;;;;;;2.43;0.60;;;;;;;22.82;52.24;99150.84;4941314;29;20332;-93
2022/09/10 09:54:21;;;;;;;1.87;0.57;;;;;;;22.79;51.62;99154.19;4920888;28;20237;-94
2022/09/10 09:57:15;;;;;;;1.63;0.80;;;;;;;22.68;51.16;99160.97;4929371;29;20242;-94
2022/09/10 09:59:42;;;;;;;1.15;0.50;;;;;;;22.73;52.23;99149.97;4944123;28;20713;-93
2022/09/10 10:02:17;;;;;;;0.70;0.53;;;;;;;22.82;51.67;99152.75;4939639;28;20236;-94
2022/09/10 10:04:59;;;;;;;1.30;0.57;;;;;;;23.05;51.39;99156.28;4932331;29;20252;-93
2022/09/10 10:07:30;;;;;;;1.20;0.50;;;;;;;23.06;50.39;99155.97;4952639;28;20268;-93
2022/09/10 10:09:59;;;;;;;1.40;0.40;;;;;;;23.16;50.26;99158.44;4915738;29;20248;-93
2022/09/10 10:12:30;;;;;;;1.02;0.50;;;;;;;23.49;49.67;99158.13;4927231;29;20237;-93
2022/09/10 10:14:58;;;;;;;0.70;0.40;;;;;;;23.67;48.08;99146.13;4931503;29;20316;-94
2022/09/10 10:17:31;;;;;;;1.73;0.40;;;;;;;23.99;47.80;99151.19;4919410;29;20240;-93
2022/09/10 10:20:18;;;;;;;0.90;0.47;;;;;;;24.26;48.33;99152.09;4945540;29;20234;-93
2022/09/10 10:22:47;;;;;;;1.33;0.43;;;;;;;24.21;43.67;99164.00;4961915;28;20333;-93
2022/09/10 10:25:40;;;;;;;1.80;0.50;;;;;;;23.96;44.53;99151.84;4948201;29;20247;-92
2022/09/10 10:28:16;;;;;;;2.20;0.60;;;;;;;24.02;45.48;99145.09;4911187;29;20233;-93
2022/09/10 10:30:43;;;;;;;1.75;0.40;;;;;;;23.70;45.25;99151.00;4938826;29;20316;-94
2022/09/10 10:33:17;;;;;;;2.25;0.50;;;;;;;23.78;45.71;99168.53;4943980;29;20365;-93
2022/09/10 10:36:06;;;;;;;1.92;0.50;;;;;;;23.82;46.97;99159.38;4946879;29;20268;-94
2022/09/10 10:38:39;;;;;;;0.95;0.40;;;;;;;23.91;46.51;99160.19;4940050;28;20268;-93
2022/09/10 10:41:32;;;;;;;1.88;0.50;;;;;;;23.54;46.06;99163.47;4918166;29;20279;-93
2022/09/10 10:44:26;;;;;;;1.00;0.40;;;;;;;23.36;45.79;99153.53;4943295;28;20373;-93
2022/09/10 10:46:59;;;;;;;1.85;0.40;;;;;;;23.52;47.04;99161.03;4940336;28;20244;-92
2022/09/10 10:49:42;;;;;;;2.20;0.50;;;;;;;23.54;47.21;99158.00;4935612;28;20228;-92
2022/09/10 10:52:20;;;;;;;1.08;0.40;;;;;;;23.37;47.18;99161.44;4951913;28;20257;-93
2022/09/10 10:55:02;;;;;;;1.20;0.60;;;;;;;23.64;47.93;99158.53;4953231;28;20233;-92
2022/09/10 10:57:33;;;;;;;0.98;0.50;;;;;;;23.59;47.13;99146.91;4957488;28;20288;-92
2022/09/10 11:00:08;;;;;;;0.82;0.40;;;;;;;23.83;47.90;99163.72;4956380;29;20319;-92
2022/09/10 11:02:48;;;;;;;1.50;0.50;;;;;;;23.87;47.75;99152.94;4923116;29;20274;-92
2022/09/10 11:05:24;;;;;;;1.52;0.60;;;;;;;23.90;46.57;99155.03;4952240;28;20336;-93
2022/09/10 11:07:51;;;;;;;0.30;0.30;;;;;;;23.90;46.26;99153.13;4942989;28;20232;-92
2022/09/10 11:10:35;;;;;;;2.10;0.50;;;;;;;24.22;46.19;99142.88;4943986;28;20722;-92
2022/09/10 11:13:08;;;;;;;1.23;0.45;;;;;;;24.23;47.10;99147.22;4949181;28;20246;-94
2022/09/10 11:15:47;;;;;;;1.17;0.40;;;;;;;23.97;46.18;99141.72;4944405;28;20237;-94
2022/09/10 11:18:20;;;;;;;0.90;0.50;;;;;;;24.31;45.69;99146.47;4934446;28;20241;-94
2022/09/10 11:21:31;;;;;;;0.47;0.40;;;;;;;24.37;46.03;99131.47;4940983;28;20308;-94
2022/09/10 11:24:11;;;;;;;1.10;0.52;;;;;;;24.65;44.33;99135.47;4931485;28;20243;-94
2022/09/10 11:27:13;;;;;;;1.40;0.40;;;;;;;24.73;44.51;99122.91;4902863;28;20233;-94
2022/09/10 11:30:10;;;;;;;1.20;0.50;;;;;;;25.03;43.87;99135.59;4906516;28;20323;-93
2022/09/10 11:32:54;;;;;;;2.05;0.50;;;;;;;24.53;44.99;99140.81;4935806;28;20223;-94
2022/09/10 11:35:26;;;;;;;1.15;0.60;;;;;;;25.20;43.71;99132.00;4932186;28;20352;-93
2022/09/10 11:38:19;;;;;;;1.80;0.50;;;;;;;25.73;44.04;99128.72;4963581;28;20239;-94
2022/09/10 11:40:52;;;;;;;0.75;0.40;;;;;;;26.14;43.67;99127.97;4954312;28;20239;-93
2022/09/10 11:43:43;;;;;;;1.73;0.40;;;;;;;25.97;42.15;99117.94;4935261;28;20228;-93
2022/09/10 11:46:22;;;;;;;0.80;0.45;;;;;;;25.65;41.76;99124.09;4934545;29;20242;-94
2022/09/10 11:49:02;;;;;;;0.95;0.40;;;;;;;25.70;42.39;99104.72;4957628;28;20228;-93
2022/09/10 11:51:35;;;;;;;1.15;0.57;;;;;;;25.64;42.59;99106.84;4944184;28;20232;-94
2022/09/10 11:54:06;;;;;;;0.80;0.40;;;;;;;25.52;43.50;99111.41;4922087;28;20241;-93